KRUG Airport (Rugby Muni) Information

FAA: RUG - ICAO: KRUG

KRUG Airport Location

State North Dakota
County Pierce
City Rugby
KRUG Airport is 2 miles northwest of Rugby, ND.
Latitude 48-23-25.3000N
Longitude 100-01-27.4000W
Elevation 1,549ft

KRUG Airport METARs

METAR KRUG 281315Z AUTO 29014KT 10SM CLR 01/01 A2987 RMK AO2
Altimeter 29.87"
Temperature 1.0°C (33.8°F)
Wind 290° at 14KT
Clouds Skies are clear.
Visibility 10.0mi
Time observed: 2021-10-28T13:15:00Z

KRUG Airport Details

Status Operational
Activation N/A
Ownership Public
Usage Public
Chart TWIN CITIES
ATC on-site No
Beacon schedule sunset-sunrise
Beacon color clear green

KRUG Airport Contacts

Owner RUGBY ARPT AUTH
Owner address 2830 HWY 2 WEST, RUGBY, ND 58368
Owner phone 701-776-5746
Manager TIM MCPHERSON
Manager address 14269 17TH ST S.E., PAGE, ND 58064
Manager phone 701-668-2302

KRUG Airport (Rugby Muni) Radio Frequencies

KRUG (Airport) Radio Frequencies

UNICOM 122.8
Common traffic advisory frequency (CTAF) 122.8